Time;durP1;ratioP1;P1;durP2;ratioP2;P2;SDS_P1;SDS_P2;PMS_P1;PMS_P2;Temp;Humidity;BMP_temperature;BMP_pressure;BME280_temperature;BME280_humidity;BME280_pressure;Samples;Min_cycle;Max_cycle;Signal;HPM_P1;HPM_P2
2022/11/17 00:01:42;;;;;;;;;;;;;;;12.78;79.98;94078.88;5056931;28;1057;-58
2022/11/17 00:04:08;;;;;;;;;;;;;;;12.84;79.52;94076.22;5056901;28;1058;-58
2022/11/17 00:06:35;;;;;;;;;;;;;;;12.76;79.49;94079.06;5056818;28;1202;-58
2022/11/17 00:09:01;;;;;;;;;;;;;;;12.58;80.61;94073.44;5056851;28;907;-58
2022/11/17 00:14:31;;;;;;;;;;;;;;;12.64;80.24;94078.00;5056802;28;1045;-58
2022/11/17 00:14:31;;;;;;;;;;;;;;;12.64;80.41;94069.97;5056801;28;1030;-58
2022/11/17 00:16:58;;;;;;;;;;;;;;;12.67;79.70;94065.03;5056767;28;1163;-58
2022/11/17 00:22:08;;;;;;;;;;;;;;;12.68;79.61;94063.97;5056642;28;962;-58
2022/11/17 00:24:34;;;;;;;;;;;;;;;12.74;79.46;94056.16;5056376;28;1034;-58
2022/11/17 00:27:00;;;;;;;;;;;;;;;12.75;79.49;94045.25;5056722;28;962;-58
2022/11/17 00:29:27;;;;;;;;;;;;;;;12.77;79.34;94043.19;5056364;28;1094;-58
2022/11/17 00:34:37;;;;;;;;;;;;;;;12.72;79.29;94039.47;5056275;28;1082;-58
2022/11/17 00:37:04;;;;;;;;;;;;;;;12.69;79.27;94038.84;5056275;28;1062;-58
2022/11/17 00:39:31;;;;;;;;;;;;;;;12.65;79.59;94031.38;5056326;28;1510;-58
2022/11/17 00:41:57;;;;;;;;;;;;;;;12.69;79.42;94030.78;5056188;28;1051;-58
2022/11/17 00:44:24;;;;;;;;;;;;;;;12.66;79.48;94036.53;5056250;28;1010;-58
2022/11/17 00:46:50;;;;;;;;;;;;;;;12.62;79.57;94037.97;5056230;28;966;-58
2022/11/17 00:49:18;;;;;;;;;;;;;;;12.65;79.07;94042.09;5056137;28;1010;-58
2022/11/17 00:51:44;;;;;;;;;;;;;;;12.60;79.15;94028.50;5055972;28;1026;-58
2022/11/17 00:54:11;;;;;;;;;;;;;;;12.62;79.10;94021.06;5055833;28;1902;-58
2022/11/17 00:56:37;;;;;;;;;;;;;;;12.52;79.44;94034.00;5055756;28;1120;-58
2022/11/17 00:59:04;;;;;;;;;;;;;;;12.30;80.24;94028.78;5056068;28;1041;-58
2022/11/17 01:01:30;;;;;;;;;;;;;;;12.45;79.71;94024.09;5055643;28;1042;-58
2022/11/17 01:04:04;;;;;;;;;;;;;;;12.43;79.95;94028.81;5055932;28;1259;-58
2022/11/17 01:06:31;;;;;;;;;;;;;;;12.33;79.93;94027.53;5055733;28;1026;-58
2022/11/17 01:08:59;;;;;;;;;;;;;;;12.27;80.52;94024.66;5055730;28;1050;-58
2022/11/17 01:11:26;;;;;;;;;;;;;;;12.40;80.04;94020.34;5055212;28;982;-58
2022/11/17 01:13:53;;;;;;;;;;;;;;;12.34;80.10;94026.53;5055605;28;1983;-58
2022/11/17 01:16:19;;;;;;;;;;;;;;;12.43;79.56;94018.09;5055621;28;1060;-58
2022/11/17 01:18:46;;;;;;;;;;;;;;;12.35;79.87;94017.44;5055601;28;1066;-58
2022/11/17 01:21:14;;;;;;;;;;;;;;;12.34;79.70;94013.94;5055468;28;1054;-58
2022/11/17 01:23:41;;;;;;;;;;;;;;;12.26;80.56;94009.56;5055464;28;1096;-58
2022/11/17 01:26:08;;;;;;;;;;;;;;;12.39;80.19;94010.69;5055534;28;1054;-58
2022/11/17 01:28:35;;;;;;;;;;;;;;;12.40;79.95;94007.78;5037626;28;1094;-58
2022/11/17 01:31:09;;;;;;;;;;;;;;;12.52;79.65;94004.53;5037786;28;1220;-58
2022/11/17 01:33:35;;;;;;;;;;;;;;;12.52;79.45;93991.13;5037442;28;1999;-58
2022/11/17 01:36:06;;;;;;;;;;;;;;;12.60;79.28;93985.59;5055447;28;1022;-58
2022/11/17 01:38:33;;;;;;;;;;;;;;;12.52;79.42;93973.19;5055188;28;1430;-58
2022/11/17 01:40:59;;;;;;;;;;;;;;;12.44;79.51;93982.22;5055261;28;986;-58
2022/11/17 01:43:49;;;;;;;;;;;;;;;12.39;80.03;93986.56;5054974;28;1109;-58
2022/11/17 01:46:22;;;;;;;;;;;;;;;12.42;79.56;93988.81;5054947;28;1869;-58
2022/11/17 01:48:49;;;;;;;;;;;;;;;12.47;79.21;93989.03;5055200;28;1058;-58
2022/11/17 01:51:16;;;;;;;;;;;;;;;12.45;79.14;93989.25;5055024;28;959;-58
2022/11/17 01:53:44;;;;;;;;;;;;;;;12.42;79.08;93984.28;5054917;28;1910;-58
2022/11/17 01:56:14;;;;;;;;;;;;;;;12.06;80.41;93982.69;5054568;28;1646;-58
2022/11/17 01:58:43;;;;;;;;;;;;;;;12.09;80.42;93984.16;5054742;28;892;-58
2022/11/17 02:01:09;;;;;;;;;;;;;;;12.20;79.65;93963.97;5054945;28;1057;-58
2022/11/17 02:03:35;;;;;;;;;;;;;;;12.19;79.72;93965.03;5054793;28;1041;-58
2022/11/17 02:06:04;;;;;;;;;;;;;;;12.33;78.83;93952.50;5054783;28;1009;-58
2022/11/17 02:08:31;;;;;;;;;;;;;;;12.30;78.92;93973.31;5054527;28;1042;-58
2022/11/17 02:10:59;;;;;;;;;;;;;;;12.26;78.71;93966.69;5054553;28;981;-58
2022/11/17 02:13:26;;;;;;;;;;;;;;;12.20;78.98;93975.56;5054349;28;1989;-58
2022/11/17 02:15:52;;;;;;;;;;;;;;;12.20;78.85;93983.59;5054675;28;1127;-58
2022/11/17 02:18:18;;;;;;;;;;;;;;;12.08;80.14;93971.78;5054376;28;1070;-58
2022/11/17 02:20:56;;;;;;;;;;;;;;;11.99;80.35;93972.97;5036771;28;1013;-58
2022/11/17 02:23:22;;;;;;;;;;;;;;;11.79;81.17;93976.34;5053670;28;1021;-58
2022/11/17 02:25:57;;;;;;;;;;;;;;;11.84;81.10;93971.22;5054332;28;997;-58
2022/11/17 02:28:23;;;;;;;;;;;;;;;12.07;79.87;93965.59;5054159;28;1045;-58
2022/11/17 02:30:55;;;;;;;;;;;;;;;12.11;79.54;93971.38;5054341;28;998;-58
2022/11/17 02:33:32;;;;;;;;;;;;;;;12.08;79.59;93971.78;5053969;28;1910;-58
2022/11/17 02:36:13;;;;;;;;;;;;;;;11.98;80.00;93961.41;5054209;28;1080;-57
2022/11/17 02:38:48;;;;;;;;;;;;;;;11.97;80.72;93967.81;5054180;28;1500;-58
2022/11/17 02:41:21;;;;;;;;;;;;;;;12.08;79.71;93961.06;5054161;28;1014;-58
2022/11/17 02:44:03;;;;;;;;;;;;;;;12.01;80.08;93954.84;5053981;28;1103;-58
2022/11/17 02:46:35;;;;;;;;;;;;;;;12.03;80.08;93947.44;5053794;28;1046;-58
2022/11/17 02:49:04;;;;;;;;;;;;;;;12.15;79.52;93951.19;5054155;28;997;-58
2022/11/17 02:51:31;;;;;;;;;;;;;;;12.21;79.48;93952.25;5053876;28;1023;-58
2022/11/17 02:53:58;;;;;;;;;;;;;;;12.00;79.97;93955.88;5053608;28;1915;-58
2022/11/17 02:56:25;;;;;;;;;;;;;;;11.99;79.77;93948.84;5053442;28;1121;-58
2022/11/17 02:58:54;;;;;;;;;;;;;;;11.96;79.97;93952.75;5053651;28;1050;-58
2022/11/17 03:01:26;;;;;;;;;;;;;;;12.04;79.67;93947.22;5053506;28;1058;-58
2022/11/17 03:03:58;;;;;;;;;;;;;;;12.19;78.88;93949.78;5053602;28;1046;-58
2022/11/17 03:06:40;;;;;;;;;;;;;;;12.20;78.46;93943.41;5053486;28;1093;-58
2022/11/17 03:09:14;;;;;;;;;;;;;;;12.12;78.94;93927.47;5053661;28;959;-59
2022/11/17 03:11:53;;;;;;;;;;;;;;;12.11;78.73;93933.88;5053503;28;977;-60
2022/11/17 03:14:26;;;;;;;;;;;;;;;12.05;79.30;93942.72;5053907;28;981;-60
2022/11/17 03:16:58;;;;;;;;;;;;;;;12.10;78.81;93929.53;5053661;28;981;-60
2022/11/17 03:19:24;;;;;;;;;;;;;;;12.04;78.83;93923.13;5053475;28;1053;-60
2022/11/17 03:22:13;;;;;;;;;;;;;;;12.04;79.40;93931.16;5053371;28;1045;-60
2022/11/17 03:24:52;;;;;;;;;;;;;;;12.07;79.07;93922.72;5027847;28;1209;-60
2022/11/17 03:27:25;;;;;;;;;;;;;;;11.81;79.98;93928.75;5053414;28;993;-60
2022/11/17 03:29:54;;;;;;;;;;;;;;;11.89;79.84;93928.63;5053408;28;1029;-60
2022/11/17 03:32:21;;;;;;;;;;;;;;;11.93;79.79;93926.38;5053162;28;1914;-60
2022/11/17 03:35:02;;;;;;;;;;;;;;;12.06;79.00;93922.94;5052974;28;1124;-60
2022/11/17 03:37:30;;;;;;;;;;;;;;;12.04;79.12;93927.66;5053082;28;1482;-60
2022/11/17 03:40:00;;;;;;;;;;;;;;;12.04;79.30;93919.63;5053291;28;1149;-60
2022/11/17 03:42:28;;;;;;;;;;;;;;;12.16;79.10;93914.50;5053163;28;978;-60
2022/11/17 03:44:57;;;;;;;;;;;;;;;12.10;79.10;93914.31;5053114;28;1077;-60
2022/11/17 03:47:25;;;;;;;;;;;;;;;12.14;79.11;93925.44;5052954;28;1163;-60
2022/11/17 03:50:04;;;;;;;;;;;;;;;12.24;78.55;93915.16;5053225;28;970;-60
2022/11/17 03:52:31;;;;;;;;;;;;;;;12.19;78.77;93911.44;5053240;28;1993;-60
2022/11/17 03:54:58;;;;;;;;;;;;;;;12.26;78.15;93921.16;5052871;28;1653;-60
2022/11/17 03:57:50;;;;;;;;;;;;;;;11.88;79.89;93926.13;5053032;28;1200;-60
2022/11/17 04:00:17;;;;;;;;;;;;;;;12.01;79.71;93922.69;5029737;28;1113;-60
2022/11/17 04:02:45;;;;;;;;;;;;;;;12.02;79.41;93919.81;5053004;28;1120;-60
2022/11/17 04:05:11;;;;;;;;;;;;;;;12.12;79.23;93924.78;5053098;28;966;-60
2022/11/17 04:07:41;;;;;;;;;;;;;;;12.00;79.71;93915.69;5052904;28;1025;-60
2022/11/17 04:10:09;;;;;;;;;;;;;;;11.89;80.36;93909.91;5052910;28;1124;-60
2022/11/17 04:18:04;;;;;;;;;;;;;;;12.00;80.34;93923.72;5052926;28;1012;-60
2022/11/17 04:20:34;;;;;;;;;;;;;;;11.96;80.93;93923.31;5052683;28;1050;-60
2022/11/17 04:23:07;;;;;;;;;;;;;;;12.00;80.84;93926.41;5052723;28;1049;-60
2022/11/17 04:28:35;;;;;;;;;;;;;;;12.06;81.05;93915.69;5052639;28;1054;-60
2022/11/17 04:31:06;;;;;;;;;;;;;;;12.06;80.48;93921.06;5052827;28;962;-60
2022/11/17 04:33:32;;;;;;;;;;;;;;;12.15;80.45;93920.91;5052768;28;2016;-60
2022/11/17 04:35:58;;;;;;;;;;;;;;;12.28;79.82;93929.00;5052641;28;1054;-60
2022/11/17 04:38:24;;;;;;;;;;;;;;;12.26;80.42;93920.31;5052695;28;1512;-60
2022/11/17 04:43:38;;;;;;;;;;;;;;;12.29;79.79;93904.69;5052576;28;1037;-60
2022/11/17 04:46:04;;;;;;;;;;;;;;;12.28;80.24;93905.69;5055051;28;1057;-59
2022/11/17 04:48:30;;;;;;;;;;;;;;;12.32;79.75;93895.41;5056049;28;999;-59
2022/11/17 04:50:57;;;;;;;;;;;;;;;12.15;80.95;93896.78;5056195;28;1030;-59
2022/11/17 04:53:23;;;;;;;;;;;;;;;12.23;80.96;93881.34;5055860;28;1999;-59
2022/11/17 04:55:49;;;;;;;;;;;;;;;12.37;80.16;93879.53;5055730;28;1630;-59
2022/11/17 04:58:15;;;;;;;;;;;;;;;12.29;80.49;93877.03;5055792;28;1522;-59
2022/11/17 05:00:42;;;;;;;;;;;;;;;12.30;80.85;93879.50;5056150;28;1030;-59
2022/11/17 05:03:08;;;;;;;;;;;;;;;12.48;80.63;93870.06;5038231;28;1112;-59
2022/11/17 05:05:34;;;;;;;;;;;;;;;12.61;81.52;93861.22;5038246;28;1053;-59
2022/11/17 05:08:00;;;;;;;;;;;;;;;12.74;81.89;93866.56;5055919;28;966;-58
2022/11/17 05:13:26;;;;;;;;;;;;;;;13.01;80.37;93869.25;5055685;28;1918;-58
2022/11/17 05:18:38;;;;;;;;;;;;;;;13.16;80.15;93879.78;5055593;28;1084;-58
2022/11/17 05:21:05;;;;;;;;;;;;;;;13.22;79.85;93877.09;5055435;28;1100;-58
2022/11/17 05:26:16;;;;;;;;;;;;;;;13.33;80.04;93870.28;5055454;28;1162;-59
2022/11/17 05:28:42;;;;;;;;;;;;;;;13.37;79.81;93873.38;5055489;28;1045;-58
2022/11/17 05:31:09;;;;;;;;;;;;;;;13.44;79.86;93871.50;5055402;28;954;-58
2022/11/17 05:33:35;;;;;;;;;;;;;;;13.50;79.18;93872.53;5055168;28;1914;-59
2022/11/17 05:36:01;;;;;;;;;;;;;;;13.48;79.92;93868.19;5055161;28;1089;-58
2022/11/17 05:38:28;;;;;;;;;;;;;;;13.48;80.27;93876.25;5037610;28;1198;-59
2022/11/17 05:40:54;;;;;;;;;;;;;;;13.53;80.54;93877.50;5055328;28;1037;-58
2022/11/17 05:43:20;;;;;;;;;;;;;;;13.53;80.74;93888.22;5055014;28;1062;-59
2022/11/17 05:45:46;;;;;;;;;;;;;;;13.53;80.85;93886.38;5037566;28;865;-59
2022/11/17 05:48:12;;;;;;;;;;;;;;;13.54;80.91;93881.81;5054967;28;1035;-59
2022/11/17 05:50:39;;;;;;;;;;;;;;;13.53;81.61;93872.94;5054863;28;1082;-59
2022/11/17 05:53:05;;;;;;;;;;;;;;;13.54;81.81;93865.69;5054866;28;1918;-58
2022/11/17 05:55:31;;;;;;;;;;;;;;;13.45;82.68;93865.13;5054662;28;1626;-59
2022/11/17 05:58:00;;;;;;;;;;;;;;;13.41;82.73;93867.41;5054788;28;1109;-59
2022/11/17 06:00:27;;;;;;;;;;;;;;;13.42;83.39;93868.22;5037057;28;1136;-58
2022/11/17 06:02:56;;;;;;;;;;;;;;;13.46;83.56;93866.75;5054805;28;1003;-59
2022/11/17 06:05:22;;;;;;;;;;;;;;;13.46;83.44;93867.56;5054593;28;1041;-61
2022/11/17 06:07:49;;;;;;;;;;;;;;;13.47;83.76;93873.78;5054676;28;1101;-59
2022/11/17 06:10:16;;;;;;;;;;;;;;;13.48;83.55;93886.16;5054670;28;1061;-59
2022/11/17 06:12:42;;;;;;;;;;;;;;;13.48;84.12;93903.09;5054638;28;2003;-60
2022/11/17 06:15:08;;;;;;;;;;;;;;;13.55;83.58;93900.41;5054577;28;1083;-60
2022/11/17 06:17:40;;;;;;;;;;;;;;;13.63;82.93;93907.41;5054409;28;1109;-59
2022/11/17 06:20:18;;;;;;;;;;;;;;;13.62;81.39;93916.47;5054368;28;1034;-60
2022/11/17 06:22:45;;;;;;;;;;;;;;;13.44;80.91;93923.34;5054590;28;1013;-60
2022/11/17 06:25:11;;;;;;;;;;;;;;;13.37;81.46;93927.06;5054446;28;1025;-61
2022/11/17 06:27:37;;;;;;;;;;;;;;;13.31;81.67;93942.16;5054194;28;1026;-60
2022/11/17 06:30:04;;;;;;;;;;;;;;;13.21;81.50;93939.84;5054261;28;1034;-60
2022/11/17 06:32:35;;;;;;;;;;;;;;;13.13;82.24;93941.91;5054031;28;1987;-60
2022/11/17 06:35:02;;;;;;;;;;;;;;;13.07;82.44;93951.59;5054370;28;1034;-60
2022/11/17 06:37:29;;;;;;;;;;;;;;;13.01;82.31;93955.09;5054093;28;1187;-59
2022/11/17 06:39:55;;;;;;;;;;;;;;;12.99;82.32;93960.69;5054180;28;1042;-59
2022/11/17 06:43:02;;;;;;;;;;;;;;;13.06;81.97;93991.03;5053952;28;1121;-59
2022/11/17 06:45:07;;;;;;;;;;;;;;;13.02;82.10;94027.34;5053836;28;1306;-59
2022/11/17 06:47:33;;;;;;;;;;;;;;;12.96;82.25;94065.72;5053784;28;1055;-59
2022/11/17 06:49:59;;;;;;;;;;;;;;;12.89;82.83;94064.88;5053835;28;919;-61
2022/11/17 06:52:25;;;;;;;;;;;;;;;12.83;83.66;94071.88;5053737;28;1914;-60
2022/11/17 06:54:51;;;;;;;;;;;;;;;12.84;83.68;94084.28;5053512;28;1594;-61
2022/11/17 06:57:17;;;;;;;;;;;;;;;12.81;82.74;94095.41;5036072;28;1066;-60
2022/11/17 06:59:44;;;;;;;;;;;;;;;12.72;82.87;94093.09;5053705;28;978;-60
2022/11/17 07:02:10;;;;;;;;;;;;;;;12.66;83.12;94106.25;5053922;28;1037;-60
2022/11/17 07:04:36;;;;;;;;;;;;;;;12.68;83.42;94120.28;5053561;28;1046;-61
2022/11/17 07:07:02;;;;;;;;;;;;;;;12.62;83.65;94113.06;5053598;28;1121;-60
2022/11/17 07:09:28;;;;;;;;;;;;;;;12.55;84.02;94124.78;5053117;28;1057;-60
2022/11/17 07:11:54;;;;;;;;;;;;;;;12.55;84.06;94122.09;5053560;28;1041;-60
2022/11/17 07:14:21;;;;;;;;;;;;;;;12.63;84.23;94117.38;5053276;28;1985;-60
2022/11/17 07:16:47;;;;;;;;;;;;;;;12.71;83.29;94116.41;5053707;28;1053;-60
2022/11/17 07:19:13;;;;;;;;;;;;;;;12.55;84.41;94111.38;5053570;28;1017;-60
2022/11/17 07:21:39;;;;;;;;;;;;;;;12.53;84.72;94108.88;5053413;28;1009;-60
2022/11/17 07:24:05;;;;;;;;;;;;;;;12.63;84.38;94103.97;5053424;28;1060;-60
2022/11/17 07:26:31;;;;;;;;;;;;;;;12.68;84.26;94106.06;5053330;28;1061;-60
2022/11/17 07:28:57;;;;;;;;;;;;;;;12.62;84.32;94101.50;5035658;28;997;-61
2022/11/17 07:31:23;;;;;;;;;;;;;;;12.73;84.29;94092.03;5053148;28;1112;-61
2022/11/17 07:33:51;;;;;;;;;;;;;;;12.77;84.12;94096.00;5035667;28;1977;-60
2022/11/17 07:36:18;;;;;;;;;;;;;;;12.68;83.99;94092.66;5053286;28;966;-61
2022/11/17 07:38:44;;;;;;;;;;;;;;;12.70;84.40;94096.78;5053177;28;1194;-60
2022/11/17 07:41:11;;;;;;;;;;;;;;;12.69;85.31;94102.34;5053215;28;1045;-60
2022/11/17 07:43:38;;;;;;;;;;;;;;;12.95;84.31;94096.25;5035318;28;1126;-62
2022/11/17 07:46:04;;;;;;;;;;;;;;;13.15;83.48;94087.47;5053357;28;993;-61
2022/11/17 07:48:31;;;;;;;;;;;;;;;13.26;83.25;94082.31;5052984;28;1070;-61
2022/11/17 07:50:57;;;;;;;;;;;;;;;13.49;83.15;94075.78;5052925;28;1177;-61
2022/11/17 07:53:23;;;;;;;;;;;;;;;13.67;81.24;94069.78;5052986;28;1992;-61
2022/11/17 07:55:49;;;;;;;;;;;;;;;13.68;81.47;94090.25;5052816;28;1637;-61
2022/11/17 07:58:15;;;;;;;;;;;;;;;13.73;81.44;94077.00;5035237;28;1315;-61
2022/11/17 08:00:42;;;;;;;;;;;;;;;13.96;80.51;94065.00;5053262;28;986;-61
2022/11/17 08:03:09;;;;;;;;;;;;;;;14.51;78.28;94070.06;5053205;28;985;-61
2022/11/17 08:05:37;;;;;;;;;;;;;;;14.89;75.65;94058.56;5052999;28;959;-61
2022/11/17 08:08:04;;;;;;;;;;;;;;;14.79;75.24;94059.03;5053045;28;1042;-61
2022/11/17 08:10:30;;;;;;;;;;;;;;;14.53;77.11;94059.91;5052860;28;990;-61
2022/11/17 08:12:58;;;;;;;;;;;;;;;14.28;77.14;94074.06;5052728;28;1993;-61
2022/11/17 08:15:24;;;;;;;;;;;;;;;14.04;79.37;94073.69;5052719;28;1074;-61
2022/11/17 08:17:51;;;;;;;;;;;;;;;14.04;79.41;94079.06;5053070;28;1017;-61
2022/11/17 08:20:17;;;;;;;;;;;;;;;14.13;80.33;94076.97;5054021;28;990;-61
2022/11/17 08:22:43;;;;;;;;;;;;;;;14.25;79.99;94077.19;5056651;28;1046;-61
2022/11/17 08:25:09;;;;;;;;;;;;;;;14.43;78.79;94065.75;5056652;28;1017;-61
2022/11/17 08:27:35;;;;;;;;;;;;;;;14.43;78.22;94071.13;5056440;28;982;-61
2022/11/17 08:30:01;;;;;;;;;;;;;;;14.64;77.18;94061.97;5039135;28;1002;-61
2022/11/17 08:32:28;;;;;;;;;;;;;;;15.11;74.64;94069.84;5056339;28;1910;-61
2022/11/17 08:34:54;;;;;;;;;;;;;;;14.78;75.56;94071.66;5056440;28;1046;-60
2022/11/17 08:37:20;;;;;;;;;;;;;;;14.77;74.99;94066.50;5056281;28;1094;-60
2022/11/17 08:39:46;;;;;;;;;;;;;;;14.73;75.42;94073.34;5056245;28;1460;-60
2022/11/17 08:42:12;;;;;;;;;;;;;;;14.62;75.31;94069.44;5056219;28;1039;-60
2022/11/17 08:44:38;;;;;;;;;;;;;;;14.53;75.59;94066.16;5056411;28;1014;-60
2022/11/17 08:47:04;;;;;;;;;;;;;;;14.77;75.61;94080.75;5056382;28;1003;-59
2022/11/17 08:49:30;;;;;;;;;;;;;;;14.94;75.57;94078.41;5056247;28;990;-60
2022/11/17 08:51:56;;;;;;;;;;;;;;;14.99;75.57;94075.09;5038454;28;1062;-60
2022/11/17 08:54:22;;;;;;;;;;;;;;;14.97;74.71;94077.19;5055910;28;1909;-60
2022/11/17 08:56:48;;;;;;;;;;;;;;;14.84;76.02;94070.00;5055863;28;1116;-60
2022/11/17 08:59:15;;;;;;;;;;;;;;;14.68;76.06;94065.06;5056084;28;1060;-60
2022/11/17 09:01:41;;;;;;;;;;;;;;;14.69;77.71;94072.13;5055850;28;1132;-60
2022/11/17 09:04:07;;;;;;;;;;;;;;;14.79;77.52;94065.22;5055829;28;1078;-60
2022/11/17 09:06:33;;;;;;;;;;;;;;;14.84;76.54;94072.69;5055886;28;1025;-60
2022/11/17 09:08:59;;;;;;;;;;;;;;;14.83;76.91;94071.00;5055853;28;1084;-59
2022/11/17 09:11:25;;;;;;;;;;;;;;;14.78;77.74;94066.28;5055642;28;1048;-60
2022/11/17 09:13:51;;;;;;;;;;;;;;;14.76;78.64;94070.22;5055594;28;1910;-60
2022/11/17 09:16:17;;;;;;;;;;;;;;;14.79;78.32;94085.94;5055754;28;1017;-60
2022/11/17 09:18:43;;;;;;;;;;;;;;;14.79;78.64;94080.56;5055736;28;1092;-60
2022/11/17 09:21:11;;;;;;;;;;;;;;;14.96;77.70;94081.72;5055694;28;981;-61
2022/11/17 09:23:38;;;;;;;;;;;;;;;15.23;76.20;94068.13;5055510;28;1046;-60
2022/11/17 09:26:05;;;;;;;;;;;;;;;15.23;75.29;94070.81;5055478;28;966;-61
2022/11/17 09:28:32;;;;;;;;;;;;;;;15.40;74.96;94066.59;5055560;28;1030;-62
2022/11/17 09:30:58;;;;;;;;;;;;;;;15.31;73.56;94054.41;5055134;28;974;-61
2022/11/17 09:33:24;;;;;;;;;;;;;;;15.08;74.32;94060.34;5037581;28;2025;-62
2022/11/17 09:35:50;;;;;;;;;;;;;;;15.09;73.65;94063.88;5055376;28;1045;-60
2022/11/17 09:38:16;;;;;;;;;;;;;;;15.01;72.61;94073.03;5055109;28;1436;-60
2022/11/17 09:40:42;;;;;;;;;;;;;;;14.93;73.66;94063.31;5037510;28;824;-60
2022/11/17 09:43:17;;;;;;;;;;;;;;;14.81;74.28;94062.34;5055351;28;989;-61
2022/11/17 09:45:46;;;;;;;;;;;;;;;14.65;73.72;94058.28;5055347;28;1133;-61
2022/11/17 09:48:25;;;;;;;;;;;;;;;14.59;74.86;94046.50;5055161;28;1029;-61
2022/11/17 09:50:55;;;;;;;;;;;;;;;14.76;73.88;94043.31;5055120;28;1056;-63
2022/11/17 09:53:27;;;;;;;;;;;;;;;14.88;75.34;94043.47;5054793;28;1989;-63
2022/11/17 09:55:59;;;;;;;;;;;;;;;14.94;74.91;94048.81;5054652;28;1587;-64
2022/11/17 09:58:32;;;;;;;;;;;;;;;14.95;73.52;94047.78;5037109;28;1058;-63
2022/11/17 10:00:58;;;;;;;;;;;;;;;14.93;74.03;94047.19;5054933;28;982;-63
2022/11/17 10:03:25;;;;;;;;;;;;;;;14.91;74.73;94046.56;5054658;28;1054;-63
2022/11/17 10:05:52;;;;;;;;;;;;;;;14.96;74.41;94044.03;5054997;28;1026;-62
2022/11/17 10:08:20;;;;;;;;;;;;;;;14.95;73.89;94047.78;5054541;28;1121;-63
2022/11/17 10:10:48;;;;;;;;;;;;;;;15.00;75.04;94050.63;5054713;28;1053;-63
2022/11/17 10:13:29;;;;;;;;;;;;;;;15.08;75.47;94046.91;5054633;28;1910;-59
2022/11/17 10:16:03;;;;;;;;;;;;;;;15.06;75.03;94054.34;5037033;28;1510;-59
2022/11/17 10:18:31;;;;;;;;;;;;;;;14.96;76.12;94054.00;5054358;28;1058;-59
2022/11/17 10:20:57;;;;;;;;;;;;;;;14.92;75.59;94048.22;5054564;28;1010;-59
2022/11/17 10:23:34;;;;;;;;;;;;;;;14.88;77.02;94048.88;5052016;28;1425;-60
2022/11/17 10:26:00;;;;;;;;;;;;;;;14.88;77.19;94049.69;5054097;28;1224;-60
2022/11/17 10:28:28;;;;;;;;;;;;;;;14.88;78.05;94040.78;5054275;28;1022;-60
2022/11/17 10:30:55;;;;;;;;;;;;;;;14.99;77.51;94049.00;5054216;28;1033;-59
2022/11/17 10:33:42;;;;;;;;;;;;;;;14.95;79.58;94058.56;5054063;28;1906;-60
2022/11/17 10:36:27;;;;;;;;;;;;;;;14.87;79.49;94060.66;5054098;28;1049;-60
2022/11/17 10:38:54;;;;;;;;;;;;;;;14.83;79.34;94068.31;5041934;28;1504;-61
2022/11/17 10:41:25;;;;;;;;;;;;;;;14.80;79.73;94060.69;5033999;28;1097;-60
2022/11/17 10:44:03;;;;;;;;;;;;;;;14.76;79.72;94062.13;5033609;28;1156;-60
2022/11/17 10:46:29;;;;;;;;;;;;;;;14.81;79.11;94051.56;5033966;28;1208;-60
2022/11/17 10:48:59;;;;;;;;;;;;;;;14.88;78.05;94038.09;5033954;28;1046;-59
2022/11/17 10:51:30;;;;;;;;;;;;;;;15.71;75.56;94035.25;5033893;28;1046;-60
2022/11/17 10:54:19;;;;;;;;;;;;;;;16.15;72.68;94041.53;5034516;28;1898;-59
2022/11/17 10:56:48;;;;;;;;;;;;;;;16.05;73.10;94037.69;5053716;28;1242;-60
2022/11/17 10:59:14;;;;;;;;;;;;;;;15.98;72.82;94037.75;5053688;28;1066;-60
2022/11/17 11:01:42;;;;;;;;;;;;;;;16.52;72.08;94030.78;5053779;28;1093;-60
2022/11/17 11:04:28;;;;;;;;;;;;;;;17.07;71.39;94031.78;5053370;28;1097;-60
2022/11/17 11:07:09;;;;;;;;;;;;;;;16.94;71.00;94028.22;5052645;28;1567;-60
2022/11/17 11:09:38;;;;;;;;;;;;;;;16.79;71.88;94028.56;5053548;28;1085;-60
2022/11/17 11:12:09;;;;;;;;;;;;;;;16.61;72.61;94020.50;5052824;28;1993;-60
2022/11/17 11:14:40;;;;;;;;;;;;;;;16.31;74.28;94025.81;5033455;28;1910;-60
2022/11/17 11:17:13;;;;;;;;;;;;;;;16.03;74.86;94043.31;5033818;28;1037;-60
2022/11/17 11:19:46;;;;;;;;;;;;;;;15.85;75.91;94045.97;5033432;28;1570;-60
2022/11/17 11:22:24;;;;;;;;;;;;;;;15.64;77.73;94052.53;5033721;28;1176;-59
2022/11/17 11:24:50;;;;;;;;;;;;;;;15.37;78.46;94040.06;5053280;28;1054;-59
2022/11/17 11:27:19;;;;;;;;;;;;;;;15.22;78.82;94042.25;5053256;28;1056;-60
2022/11/17 11:29:55;;;;;;;;;;;;;;;15.50;79.00;94030.22;5053495;28;1075;-60
2022/11/17 11:32:34;;;;;;;;;;;;;;;16.07;77.66;94027.50;5053125;28;1910;-59
2022/11/17 11:35:03;;;;;;;;;;;;;;;16.19;77.35;94040.03;5053375;28;1053;-59
2022/11/17 11:37:36;;;;;;;;;;;;;;;16.42;76.84;94037.75;5052509;28;1527;-59
2022/11/17 11:40:14;;;;;;;;;;;;;;;16.49;75.67;94038.50;5033565;28;1061;-59
2022/11/17 11:42:44;;;;;;;;;;;;;;;16.63;76.14;94037.28;5036829;28;1369;-59
2022/11/17 11:45:19;;;;;;;;;;;;;;;16.75;74.49;94032.78;5053164;28;1102;-59
2022/11/17 11:47:48;;;;;;;;;;;;;;;16.69;74.38;94032.84;5053253;28;994;-61
2022/11/17 11:50:24;;;;;;;;;;;;;;;16.47;76.59;94032.50;5053041;28;1058;-61
2022/11/17 11:52:53;;;;;;;;;;;;;;;16.26;76.27;94037.28;5052986;28;1910;-60
2022/11/17 11:55:21;;;;;;;;;;;;;;;16.04;76.72;94039.56;5043697;28;1606;-61
2022/11/17 11:58:07;;;;;;;;;;;;;;;15.81;78.02;94043.69;5037359;28;998;-59
2022/11/17 12:00:33;;;;;;;;;;;;;;;15.67;79.42;94044.00;5026630;28;1187;-59
2022/11/17 12:02:59;;;;;;;;;;;;;;;15.49;79.45;94031.28;5042577;28;1135;-59
2022/11/17 12:05:44;;;;;;;;;;;;;;;15.60;78.97;94022.50;5057121;28;1061;-59
2022/11/17 12:08:14;;;;;;;;;;;;;;;15.76;79.55;94029.22;5057110;28;974;-59
2022/11/17 12:10:44;;;;;;;;;;;;;;;15.61;80.77;94025.00;5057010;28;954;-60
2022/11/17 12:13:14;;;;;;;;;;;;;;;15.67;79.64;94027.81;5056551;28;1980;-60
2022/11/17 12:15:40;;;;;;;;;;;;;;;15.67;80.81;94028.69;5056760;28;1113;-59
2022/11/17 12:18:09;;;;;;;;;;;;;;;15.60;79.70;94031.41;5056929;28;954;-60
2022/11/17 12:20:35;;;;;;;;;;;;;;;15.56;80.27;94032.06;5056742;28;970;-60
2022/11/17 12:23:01;;;;;;;;;;;;;;;15.64;79.70;94031.78;5056518;28;1034;-60
2022/11/17 12:25:29;;;;;;;;;;;;;;;15.72;78.54;94031.50;5056623;28;1237;-60
2022/11/17 12:27:55;;;;;;;;;;;;;;;15.82;78.57;94031.03;5056596;28;1011;-60
2022/11/17 12:30:30;;;;;;;;;;;;;;;15.84;78.06;94022.75;5056752;28;1041;-60
2022/11/17 12:32:57;;;;;;;;;;;;;;;15.81;77.66;94029.41;5056370;28;1926;-60
2022/11/17 12:35:23;;;;;;;;;;;;;;;15.66;79.34;94018.94;5056355;28;1026;-59
2022/11/17 12:38:09;;;;;;;;;;;;;;;15.66;79.26;94024.31;5053070;28;1685;-61
2022/11/17 12:40:38;;;;;;;;;;;;;;;15.59;79.67;94019.00;5036294;28;1122;-61
2022/11/17 12:43:13;;;;;;;;;;;;;;;15.67;79.43;94025.97;5041476;28;1184;-61
2022/11/17 12:45:51;;;;;;;;;;;;;;;15.72;79.14;94028.00;5056325;28;1042;-61
2022/11/17 12:48:25;;;;;;;;;;;;;;;15.78;79.11;94033.38;5038500;28;989;-61
2022/11/17 12:50:54;;;;;;;;;;;;;;;15.72;79.65;94036.09;5056183;28;1013;-61
2022/11/17 12:53:39;;;;;;;;;;;;;;;15.67;79.77;94044.84;5055910;28;1910;-61
2022/11/17 12:56:06;;;;;;;;;;;;;;;15.69;80.21;94031.13;5037530;28;1614;-61
2022/11/17 12:58:47;;;;;;;;;;;;;;;15.70;80.23;94022.00;5036027;28;1081;-61
2022/11/17 13:01:27;;;;;;;;;;;;;;;15.66;80.04;94024.31;5035901;28;964;-61
2022/11/17 13:04:12;;;;;;;;;;;;;;;15.72;80.03;94031.50;5047270;28;1308;-61
2022/11/17 13:06:56;;;;;;;;;;;;;;;15.71;80.05;94015.59;5055123;28;1216;-61
2022/11/17 13:09:24;;;;;;;;;;;;;;;15.66;80.22;94010.03;5055898;28;1077;-60
2022/11/17 13:11:59;;;;;;;;;;;;;;;15.72;81.54;94026.13;5055748;28;1509;-61
2022/11/17 13:14:26;;;;;;;;;;;;;;;15.76;81.85;94035.47;5055569;28;1981;-60
2022/11/17 13:16:52;;;;;;;;;;;;;;;15.78;80.91;94036.06;5055671;28;1101;-61
2022/11/17 13:19:32;;;;;;;;;;;;;;;15.80;81.58;94036.69;5055502;28;1097;-61
2022/11/17 13:22:18;;;;;;;;;;;;;;;15.76;80.81;94040.88;5056096;28;1248;-61
2022/11/17 13:24:45;;;;;;;;;;;;;;;15.73;80.90;94038.59;5055579;28;1081;-61
2022/11/17 13:27:28;;;;;;;;;;;;;;;15.76;80.46;94035.47;5055514;28;1124;-61
2022/11/17 13:30:13;;;;;;;;;;;;;;;15.75;80.76;94049.97;5055522;28;1037;-61
2022/11/17 13:32:40;;;;;;;;;;;;;;;15.72;80.44;94053.06;5055034;28;1987;-61
2022/11/17 13:35:26;;;;;;;;;;;;;;;15.73;81.83;94049.38;5035383;28;1050;-61